Time;durP1;ratioP1;P1;durP2;ratioP2;P2;SDS_P1;SDS_P2;PMS_P1;PMS_P2;Temp;Humidity;BMP_temperature;BMP_pressure;BME280_temperature;BME280_humidity;BME280_pressure;Samples;Min_cycle;Max_cycle;Signal;HPM_P1;HPM_P2
2022/05/10 00:00:53;;;;;;;5.57;4.40;;;;;;;13.08;54.01;95363.91;5116246;28;20202;-70
2022/05/10 00:03:22;;;;;;;4.65;4.25;;;;;;;13.07;53.90;95371.44;5116488;28;20509;-70
2022/05/10 00:05:49;;;;;;;5.43;3.95;;;;;;;13.03;53.60;95359.44;5115121;28;20210;-69
2022/05/10 00:08:17;;;;;;;5.32;4.25;;;;;;;12.94;54.32;95367.16;5116727;28;20222;-69
2022/05/10 00:10:45;;;;;;;4.65;4.15;;;;;;;12.95;54.59;95366.78;5116549;28;20588;-69
2022/05/10 00:13:14;;;;;;;5.60;4.10;;;;;;;12.95;54.52;95366.00;5116732;28;20194;-70
2022/05/10 00:15:43;;;;;;;4.30;3.90;;;;;;;12.89;55.17;95359.94;5115668;28;20206;-69
2022/05/10 00:18:13;;;;;;;5.78;4.47;;;;;;;12.87;54.85;95361.47;5116634;28;20195;-69
2022/05/10 00:20:41;;;;;;;5.55;4.30;;;;;;;12.83;55.51;95350.31;5115755;28;20202;-69
2022/05/10 00:23:09;;;;;;;5.68;4.50;;;;;;;12.80;54.81;95362.09;5115699;28;20196;-69
2022/05/10 00:25:35;;;;;;;4.78;4.03;;;;;;;12.79;55.46;95357.72;5115327;28;20180;-69
2022/05/10 00:28:02;;;;;;;5.97;4.40;;;;;;;12.76;55.49;95355.69;5115448;28;20222;-69
2022/05/10 00:30:29;;;;;;;7.82;4.55;;;;;;;12.74;55.52;95358.00;5115510;28;20206;-69
2022/05/10 00:32:57;;;;;;;4.72;4.25;;;;;;;12.73;55.47;95359.16;5115545;28;20199;-69
2022/05/10 00:35:26;;;;;;;4.40;4.00;;;;;;;12.70;54.23;95359.88;5116283;28;20527;-69
2022/05/10 00:37:55;;;;;;;4.63;3.83;;;;;;;12.72;54.03;95363.09;5115419;28;20195;-69
2022/05/10 00:40:24;;;;;;;4.40;3.78;;;;;;;12.73;53.92;95359.16;5116143;28;20239;-69
2022/05/10 00:42:55;;;;;;;4.95;3.58;;;;;;;12.73;53.15;95354.44;5115331;28;20214;-69
2022/05/10 00:45:26;;;;;;;5.07;4.20;;;;;;;12.75;53.59;95363.19;5115080;28;20179;-69
2022/05/10 00:48:02;;;;;;;7.18;3.92;;;;;;;12.76;52.92;95355.69;5115190;28;20207;-69
2022/05/10 00:50:33;;;;;;;5.30;3.58;;;;;;;12.74;53.24;95358.81;5115380;28;20201;-70
2022/05/10 00:53:04;;;;;;;5.20;3.72;;;;;;;12.71;53.17;95364.28;5114795;28;20206;-69
2022/05/10 00:55:34;;;;;;;4.43;3.63;;;;;;;12.70;53.00;95357.09;5116219;28;20203;-69
2022/05/10 00:58:05;;;;;;;6.15;3.65;;;;;;;12.69;53.14;95359.09;5115052;28;20198;-69
2022/05/10 01:00:33;;;;;;;3.67;3.33;;;;;;;12.64;53.18;95361.34;5115547;28;20180;-69
2022/05/10 01:03:08;;;;;;;4.55;3.22;;;;;;;12.61;52.85;95362.84;5114658;28;20603;-69
2022/05/10 01:05:39;;;;;;;4.00;3.38;;;;;;;12.60;53.06;95360.41;5115013;28;20210;-69
2022/05/10 01:08:12;;;;;;;3.70;3.40;;;;;;;12.59;52.87;95354.09;5115709;28;20277;-69
2022/05/10 01:10:42;;;;;;;4.10;3.63;;;;;;;12.53;53.61;95364.63;5115846;28;20198;-69
2022/05/10 01:13:15;;;;;;;5.78;4.18;;;;;;;12.45;54.97;95357.31;5114774;28;20199;-69
2022/05/10 01:15:47;;;;;;;6.57;3.60;;;;;;;12.39;54.71;95347.69;5115696;28;20179;-69
2022/05/10 01:18:23;;;;;;;5.70;3.40;;;;;;;12.26;54.51;95346.97;5114991;28;20214;-69
2022/05/10 01:20:51;;;;;;;5.07;3.90;;;;;;;12.24;54.74;95348.50;5115587;28;20191;-69
2022/05/10 01:23:44;;;;;;;5.50;3.40;;;;;;;12.16;55.54;95350.25;5114845;28;20573;-69
2022/05/10 01:26:16;;;;;;;4.47;3.75;;;;;;;12.02;55.35;95344.41;5115777;28;20188;-69
2022/05/10 01:28:46;;;;;;;6.95;3.63;;;;;;;11.92;56.08;95342.16;5114886;28;20219;-69
2022/05/10 01:31:34;;;;;;;4.03;3.63;;;;;;;11.91;55.95;95338.59;5114777;28;20203;-69
2022/05/10 01:34:04;;;;;;;4.53;3.40;;;;;;;11.90;55.35;95339.72;5114585;28;20195;-69
2022/05/10 01:36:34;;;;;;;4.22;3.72;;;;;;;11.80;56.12;95338.28;5115110;28;20213;-69
2022/05/10 01:39:05;;;;;;;3.83;3.40;;;;;;;11.73;56.35;95334.50;5114490;28;20245;-69
2022/05/10 01:41:38;;;;;;;3.83;3.45;;;;;;;11.72;56.65;95347.50;5114246;28;20312;-69
2022/05/10 01:44:18;;;;;;;5.60;4.03;;;;;;;11.64;56.33;95345.72;5114233;28;20203;-70
2022/05/10 01:46:46;;;;;;;9.13;4.00;;;;;;;11.55;56.77;95345.88;5115166;28;20180;-69
2022/05/10 01:49:21;;;;;;;4.00;3.55;;;;;;;11.61;57.25;95340.09;5115035;28;20203;-69
2022/05/10 01:51:52;;;;;;;4.25;3.90;;;;;;;11.66;57.11;95342.59;5115351;28;20191;-69
2022/05/10 01:54:58;;;;;;;5.53;4.50;;;;;;;11.53;57.00;95344.63;5115611;28;20202;-69
2022/05/10 01:57:25;;;;;;;3.90;3.60;;;;;;;11.50;56.58;95339.78;5097482;28;20212;-69
2022/05/10 01:59:59;;;;;;;5.45;3.80;;;;;;;11.51;57.04;95344.97;5115309;28;20184;-69
2022/05/10 02:02:26;;;;;;;4.47;4.07;;;;;;;11.52;57.13;95335.53;5114334;28;20199;-69
2022/05/10 02:04:55;;;;;;;6.78;4.70;;;;;;;11.54;57.25;95340.69;5115111;28;20195;-69
2022/05/10 02:07:24;;;;;;;5.28;4.32;;;;;;;11.54;57.28;95344.25;5115245;28;20289;-69
2022/05/10 02:09:58;;;;;;;5.75;4.47;;;;;;;11.56;57.66;95343.91;5114935;28;20650;-69
2022/05/10 02:12:28;;;;;;;7.30;4.60;;;;;;;11.54;57.86;95341.47;5114655;28;20195;-70
2022/05/10 02:15:01;;;;;;;6.65;4.53;;;;;;;11.52;58.00;95343.81;5113888;28;20188;-69
2022/05/10 02:17:31;;;;;;;7.25;5.47;;;;;;;11.46;57.55;95342.44;5114152;28;20207;-69
2022/05/10 02:20:03;;;;;;;8.27;5.38;;;;;;;11.41;58.07;95347.44;5114097;28;20200;-69
2022/05/10 02:22:33;;;;;;;9.10;5.80;;;;;;;11.32;58.51;95350.34;5115120;28;20194;-69
2022/05/10 02:25:03;;;;;;;9.15;6.60;;;;;;;11.23;58.24;95352.44;5115068;28;20190;-69
2022/05/10 02:27:34;;;;;;;9.95;6.43;;;;;;;11.13;57.91;95345.44;5113925;28;20199;-69
2022/05/10 02:30:05;;;;;;;8.73;5.70;;;;;;;11.12;58.11;95340.28;5118662;28;20231;-68
2022/05/10 02:35:21;;;;;;;9.13;5.35;;;;;;;11.05;58.17;95338.91;5117907;28;20192;-69
2022/05/10 02:37:48;;;;;;;8.10;5.45;;;;;;;11.07;58.35;95342.16;5118447;28;20195;-69
2022/05/10 02:40:15;;;;;;;8.68;5.15;;;;;;;11.12;58.60;95338.34;5117783;28;20231;-69
2022/05/10 02:42:42;;;;;;;9.02;5.22;;;;;;;11.14;58.91;95337.97;5117453;28;20214;-69
2022/05/10 02:45:12;;;;;;;8.30;5.13;;;;;;;11.07;59.36;95344.06;5117607;28;20196;-69
2022/05/10 02:47:41;;;;;;;6.78;4.68;;;;;;;10.96;58.65;95341.00;5118338;28;20264;-69
2022/05/10 02:50:14;;;;;;;7.45;5.05;;;;;;;10.98;58.86;95340.66;5118030;28;20660;-69
2022/05/10 02:52:42;;;;;;;9.27;5.00;;;;;;;11.01;58.79;95340.78;5117766;28;20200;-70
2022/05/10 02:55:12;;;;;;;8.13;4.90;;;;;;;11.03;59.19;95341.22;5117987;28;20208;-70
2022/05/10 02:57:39;;;;;;;5.38;4.45;;;;;;;11.03;59.36;95343.97;5117701;28;20618;-70
2022/05/10 03:00:08;;;;;;;10.32;4.70;;;;;;;10.97;58.75;95344.59;5118625;28;20195;-70
2022/05/10 03:02:40;;;;;;;7.85;5.00;;;;;;;10.92;59.10;95344.81;5117930;28;20184;-69
2022/05/10 03:05:08;;;;;;;6.93;5.55;;;;;;;10.87;59.37;95345.06;5117078;28;20245;-70
2022/05/10 03:07:35;;;;;;;9.88;5.30;;;;;;;10.78;59.62;95351.53;5116781;28;20249;-67
2022/05/10 03:10:02;;;;;;;9.02;5.05;;;;;;;10.75;59.36;95351.41;5116904;28;20670;-68
2022/05/10 03:12:28;;;;;;;8.43;5.18;;;;;;;10.67;59.75;95344.03;5117679;28;20521;-68
2022/05/10 03:14:56;;;;;;;10.43;4.95;;;;;;;10.59;59.62;95352.09;5117754;28;20277;-68
2022/05/10 03:17:22;;;;;;;11.25;5.30;;;;;;;10.60;59.86;95344.63;5116723;28;20613;-68
2022/05/10 03:19:51;;;;;;;9.57;4.27;;;;;;;10.58;60.03;95344.97;5117734;28;20184;-69
2022/05/10 03:22:17;;;;;;;4.85;4.35;;;;;;;10.60;60.32;95344.63;5117083;28;20187;-68
2022/05/10 03:24:44;;;;;;;6.95;4.40;;;;;;;10.62;59.73;95349.81;5117181;28;20522;-68
2022/05/10 03:27:13;;;;;;;9.15;5.07;;;;;;;10.58;59.41;95350.50;5117836;28;20188;-68
2022/05/10 03:29:40;;;;;;;5.70;4.90;;;;;;;10.60;59.73;95348.22;5117116;28;20207;-70
2022/05/10 03:32:08;;;;;;;5.82;4.50;;;;;;;10.65;59.26;95352.69;5117975;28;20198;-69
2022/05/10 03:37:21;;;;;;;10.10;4.80;;;;;;;10.71;59.61;95351.31;5116752;28;20187;-68
2022/05/10 03:39:48;;;;;;;7.32;5.07;;;;;;;10.71;60.35;95353.22;5115332;28;20254;-67
2022/05/10 03:42:15;;;;;;;7.78;4.95;;;;;;;10.67;60.67;95360.59;5117364;28;20192;-68
2022/05/10 03:44:41;;;;;;;9.63;5.45;;;;;;;10.65;60.54;95358.19;5116278;28;20203;-69
2022/05/10 03:47:10;;;;;;;8.07;5.78;;;;;;;10.64;60.90;95364.03;5117346;28;20191;-66
2022/05/10 03:49:37;;;;;;;8.05;6.00;;;;;;;10.59;60.84;95359.56;5116026;28;20238;-65
2022/05/10 03:52:04;;;;;;;9.75;5.50;;;;;;;10.60;60.48;95361.16;5116767;28;20195;-65
2022/05/10 03:54:32;;;;;;;9.38;5.63;;;;;;;10.63;60.30;95366.00;5117054;28;20187;-66
2022/05/10 03:56:59;;;;;;;9.82;6.35;;;;;;;10.63;60.97;95365.19;5117534;28;20211;-65
2022/05/10 03:59:27;;;;;;;9.20;5.97;;;;;;;10.64;61.31;95372.31;5116569;28;20246;-64
2022/05/10 04:01:53;;;;;;;8.52;5.40;;;;;;;10.66;60.46;95368.06;5116625;28;20195;-64
2022/05/10 04:04:20;;;;;;;10.10;5.68;;;;;;;10.66;60.76;95365.31;5116125;28;20203;-64
2022/05/10 04:06:47;;;;;;;8.77;5.10;;;;;;;10.69;60.64;95366.59;5116185;28;20195;-64
2022/05/10 04:09:14;;;;;;;7.28;5.85;;;;;;;10.69;61.26;95377.63;5116438;28;20235;-64
2022/05/10 04:11:43;;;;;;;10.13;5.35;;;;;;;10.71;61.53;95376.13;5115926;28;20204;-64
2022/05/10 04:14:09;;;;;;;9.30;5.93;;;;;;;10.78;61.40;95372.78;5116833;28;20197;-64
2022/05/10 04:16:36;;;;;;;8.57;5.50;;;;;;;10.82;61.77;95380.03;5115838;28;20188;-64
2022/05/10 04:19:03;;;;;;;10.18;5.72;;;;;;;10.79;61.39;95385.44;5116741;28;20184;-64
2022/05/10 04:21:30;;;;;;;7.93;5.72;;;;;;;10.85;62.00;95384.03;5115671;28;20223;-64
2022/05/10 04:23:57;;;;;;;13.77;5.68;;;;;;;10.89;61.13;95384.94;5116198;28;20194;-64
2022/05/10 04:26:23;;;;;;;9.32;5.43;;;;;;;10.92;61.37;95384.25;5116118;28;20200;-64
2022/05/10 04:28:52;;;;;;;11.93;5.20;;;;;;;10.99;61.71;95378.16;5116372;28;20180;-64
2022/05/10 04:31:18;;;;;;;8.07;5.80;;;;;;;11.02;61.16;95389.28;5116457;28;20215;-64
2022/05/10 04:33:45;;;;;;;8.40;5.35;;;;;;;11.14;61.23;95391.22;5115427;28;20211;-64
2022/05/10 04:36:12;;;;;;;12.07;5.70;;;;;;;11.19;61.77;95379.94;5115543;28;20200;-65
2022/05/10 04:38:39;;;;;;;7.32;5.60;;;;;;;11.20;62.49;95380.75;5115295;28;20207;-64
2022/05/10 04:43:53;;;;;;;8.65;5.93;;;;;;;11.28;62.13;95377.03;5115121;28;20510;-64
2022/05/10 04:46:19;;;;;;;7.60;5.10;;;;;;;11.36;60.48;95378.84;5114877;28;20199;-64
2022/05/10 04:48:46;;;;;;;6.25;4.78;;;;;;;11.38;61.70;95378.50;5115760;28;20206;-64
2022/05/10 04:51:13;;;;;;;7.32;5.13;;;;;;;11.38;61.40;95395.09;5116014;28;20188;-64
2022/05/10 04:53:40;;;;;;;5.47;4.88;;;;;;;11.44;59.33;95391.72;5115636;28;20597;-64
2022/05/10 04:56:07;;;;;;;8.93;5.13;;;;;;;11.44;60.98;95383.44;5115084;28;20211;-64
2022/05/10 04:58:33;;;;;;;7.78;4.65;;;;;;;11.41;60.78;95395.19;5116013;28;20191;-64
2022/05/10 05:01:04;;;;;;;7.05;4.60;;;;;;;11.40;61.13;95393.59;5115037;28;20195;-64
2022/05/10 05:03:32;;;;;;;6.70;5.38;;;;;;;11.43;61.38;95395.63;5115015;28;20191;-65
2022/05/10 05:05:58;;;;;;;9.57;5.05;;;;;;;11.47;61.39;95404.00;5114961;28;20188;-64
2022/05/10 05:08:25;;;;;;;7.22;5.60;;;;;;;11.49;60.70;95399.75;5114517;28;20607;-64
2022/05/10 05:10:53;;;;;;;8.25;5.47;;;;;;;11.54;60.83;95396.72;5114486;28;20231;-64
2022/05/10 05:13:20;;;;;;;6.78;4.95;;;;;;;11.60;59.79;95402.81;5114735;28;20599;-64
2022/05/10 05:15:47;;;;;;;6.68;5.53;;;;;;;11.64;60.06;95394.63;5115753;28;20180;-64
2022/05/10 05:18:15;;;;;;;6.07;5.22;;;;;;;11.72;59.37;95393.69;5114459;28;20207;-64
2022/05/10 05:20:43;;;;;;;8.50;5.88;;;;;;;11.98;57.75;95399.59;5115543;28;20180;-64
2022/05/10 05:23:10;;;;;;;5.78;5.18;;;;;;;12.36;56.35;95397.41;5114750;28;20292;-64
2022/05/10 05:25:38;;;;;;;6.43;5.18;;;;;;;12.31;56.82;95398.47;5115497;28;20192;-64
2022/05/10 05:28:06;;;;;;;8.40;5.55;;;;;;;12.22;56.65;95395.84;5115602;28;20626;-64
2022/05/10 05:30:33;;;;;;;6.93;5.28;;;;;;;12.18;57.41;95399.69;5115944;28;20207;-64
2022/05/10 05:33:00;;;;;;;8.00;5.43;;;;;;;12.13;57.51;95392.47;5116043;28;20190;-64
2022/05/10 05:35:29;;;;;;;6.63;5.25;;;;;;;12.14;57.45;95391.31;5114654;28;20198;-64
2022/05/10 05:37:56;;;;;;;7.50;5.47;;;;;;;12.19;57.06;95384.69;5114558;28;20206;-64
2022/05/10 05:40:24;;;;;;;5.72;4.65;;;;;;;12.22;56.53;95382.03;5114392;28;20243;-64
2022/05/10 05:42:52;;;;;;;7.30;5.13;;;;;;;12.23;56.24;95388.34;5115468;28;20194;-64
2022/05/10 05:45:20;;;;;;;7.78;5.00;;;;;;;12.24;58.23;95388.03;5115477;28;20180;-64
2022/05/10 05:47:47;;;;;;;7.28;5.38;;;;;;;12.22;57.83;95381.22;5115108;28;20550;-64
2022/05/10 05:50:17;;;;;;;8.60;5.70;;;;;;;12.26;58.09;95382.91;5115398;28;20211;-64
2022/05/10 05:52:46;;;;;;;9.40;4.97;;;;;;;12.32;56.86;95382.69;5115545;28;20180;-64
2022/05/10 05:55:13;;;;;;;7.80;5.45;;;;;;;12.36;56.49;95378.81;5114542;28;20614;-64
2022/05/10 05:57:40;;;;;;;9.63;5.45;;;;;;;12.40;56.41;95382.47;5114518;28;20195;-64
2022/05/10 06:00:09;;;;;;;5.80;5.00;;;;;;;12.48;55.87;95377.94;5115109;28;20620;-64
2022/05/10 06:02:37;;;;;;;5.68;4.80;;;;;;;12.57;55.04;95375.78;5115005;28;20184;-64
2022/05/10 06:05:06;;;;;;;6.95;5.03;;;;;;;12.65;54.91;95379.53;5118437;28;20203;-64
2022/05/10 06:07:32;;;;;;;6.90;4.50;;;;;;;12.72;54.26;95377.75;5118176;28;20223;-64
2022/05/10 06:10:01;;;;;;;6.82;4.50;;;;;;;12.80;54.07;95375.94;5119024;28;20219;-64
2022/05/10 06:12:27;;;;;;;6.65;4.18;;;;;;;12.83;53.98;95378.00;5119196;28;20683;-64
2022/05/10 06:14:55;;;;;;;7.25;4.72;;;;;;;12.90;54.20;95388.44;5119279;28;20187;-64
2022/05/10 06:17:23;;;;;;;5.43;4.55;;;;;;;12.95;54.33;95386.16;5118894;28;20210;-64
2022/05/10 06:19:50;;;;;;;7.15;4.40;;;;;;;12.98;55.04;95387.44;5118601;28;20184;-64
2022/05/10 06:22:17;;;;;;;6.53;4.90;;;;;;;12.97;54.93;95388.59;5119553;28;20556;-64
2022/05/10 06:24:46;;;;;;;7.55;5.35;;;;;;;13.00;54.41;95385.13;5118721;28;20184;-64
2022/05/10 06:27:16;;;;;;;7.93;6.50;;;;;;;13.07;54.23;95376.97;5117538;28;20607;-64
2022/05/10 06:29:44;;;;;;;7.65;6.57;;;;;;;13.13;53.67;95377.47;5118757;28;20208;-64
2022/05/10 06:32:11;;;;;;;8.15;6.85;;;;;;;13.18;54.41;95379.94;5117722;28;20501;-64
2022/05/10 06:34:41;;;;;;;8.73;5.57;;;;;;;13.24;54.77;95384.06;5117356;28;20254;-64
2022/05/10 06:38:16;;;;;;;9.00;6.28;;;;;;;13.29;54.70;95380.22;5117501;28;20196;-64
2022/05/10 06:40:06;;;;;;;9.38;6.70;;;;;;;13.34;54.09;95377.97;5118085;28;20232;-64
2022/05/10 06:42:35;;;;;;;10.75;7.25;;;;;;;13.44;53.34;95376.59;5118782;28;20208;-64
2022/05/10 06:45:02;;;;;;;9.35;6.55;;;;;;;13.48;53.18;95375.50;5118553;28;20187;-64
2022/05/10 06:47:29;;;;;;;10.80;7.95;;;;;;;13.55;52.77;95379.59;5118312;28;20180;-64
2022/05/10 06:49:56;;;;;;;8.68;7.40;;;;;;;13.58;53.06;95376.91;5116795;28;20631;-64
2022/05/10 06:52:23;;;;;;;10.95;7.10;;;;;;;13.61;53.02;95372.56;5117814;28;20270;-64
2022/05/10 06:54:50;;;;;;;8.38;7.22;;;;;;;13.65;53.14;95377.06;5117411;28;20196;-64
2022/05/10 06:57:17;;;;;;;14.70;10.00;;;;;;;13.71;52.93;95375.56;5117808;28;20229;-64
2022/05/10 06:59:45;;;;;;;12.25;8.32;;;;;;;13.81;52.72;95376.97;5116605;28;20196;-64
2022/05/10 07:02:12;;;;;;;10.23;8.15;;;;;;;13.87;51.83;95377.44;5099996;28;20643;-64
2022/05/10 07:04:39;;;;;;;8.82;7.82;;;;;;;13.92;51.55;95374.41;5117897;28;20188;-64
2022/05/10 07:07:06;;;;;;;9.60;7.25;;;;;;;13.99;51.70;95371.75;5117090;28;20196;-64
2022/05/10 07:09:32;;;;;;;8.85;5.97;;;;;;;14.11;51.77;95377.13;5117593;28;20196;-64
2022/05/10 07:11:59;;;;;;;6.90;5.90;;;;;;;14.25;51.04;95376.59;5117759;28;20195;-64
2022/05/10 07:14:26;;;;;;;10.57;6.35;;;;;;;14.29;50.45;95376.66;5116289;28;20196;-64
2022/05/10 07:16:55;;;;;;;8.07;6.07;;;;;;;14.29;50.25;95371.91;5116619;28;20196;-64
2022/05/10 07:19:22;;;;;;;8.50;6.43;;;;;;;14.34;49.95;95370.78;5116839;28;20227;-64
2022/05/10 07:21:49;;;;;;;10.05;6.25;;;;;;;14.37;49.91;95370.84;5117830;28;20184;-64
2022/05/10 07:24:19;;;;;;;6.72;5.95;;;;;;;14.41;50.21;95366.16;5117504;28;20673;-64
2022/05/10 07:26:46;;;;;;;9.00;5.30;;;;;;;14.53;49.64;95370.78;5116806;28;20223;-64
2022/05/10 07:29:13;;;;;;;10.45;6.30;;;;;;;14.59;49.48;95360.13;5117017;28;20525;-64
2022/05/10 07:31:40;;;;;;;8.30;5.78;;;;;;;14.64;49.24;95362.63;5116557;28;20550;-64
2022/05/10 07:34:08;;;;;;;9.90;5.97;;;;;;;14.73;49.33;95362.34;5117158;28;20187;-64
2022/05/10 07:36:35;;;;;;;8.57;6.40;;;;;;;14.82;49.08;95365.69;5116390;28;20192;-64
2022/05/10 07:39:02;;;;;;;6.90;6.00;;;;;;;14.97;50.50;95366.69;5116051;28;20240;-64
2022/05/10 07:41:29;;;;;;;8.20;5.88;;;;;;;15.12;50.21;95354.59;5116565;28;20187;-64
2022/05/10 07:43:57;;;;;;;8.63;7.10;;;;;;;15.19;49.23;95362.25;5116224;28;20199;-64
2022/05/10 07:46:24;;;;;;;8.35;6.00;;;;;;;15.28;48.52;95355.22;5117566;28;20184;-64
2022/05/10 07:48:52;;;;;;;8.27;4.38;;;;;;;15.44;47.51;95357.03;5116769;28;20176;-64
2022/05/10 07:51:21;;;;;;;5.63;3.40;;;;;;;15.56;47.14;95368.69;5115968;28;20268;-64
2022/05/10 07:53:48;;;;;;;4.47;3.75;;;;;;;15.66;46.46;95358.94;5117023;28;20187;-66
2022/05/10 07:56:15;;;;;;;4.40;3.78;;;;;;;15.75;46.03;95362.19;5115933;28;20208;-65
2022/05/10 07:58:41;;;;;;;5.28;3.60;;;;;;;15.82;46.02;95359.50;5116317;28;20195;-65
2022/05/10 08:01:08;;;;;;;5.10;3.28;;;;;;;15.95;44.66;95359.25;5116066;28;20195;-65
2022/05/10 08:03:36;;;;;;;4.30;3.90;;;;;;;16.03;44.92;95349.81;5115924;28;20191;-65
2022/05/10 08:06:03;;;;;;;5.47;3.58;;;;;;;16.13;45.79;95351.91;5116392;28;20187;-65
2022/05/10 08:08:33;;;;;;;3.53;3.22;;;;;;;16.36;46.98;95349.75;5116834;28;20184;-65
2022/05/10 08:11:00;;;;;;;2.72;2.40;;;;;;;16.58;43.17;95350.72;5115734;28;20219;-65
2022/05/10 08:13:29;;;;;;;5.13;3.08;;;;;;;16.65;42.21;95352.78;5116507;28;20176;-65
2022/05/10 08:15:56;;;;;;;3.50;2.10;;;;;;;16.77;40.42;95349.72;5115587;28;20222;-65
2022/05/10 08:18:24;;;;;;;1.88;1.70;;;;;;;16.80;39.47;95339.78;5115288;28;20203;-65
2022/05/10 08:20:51;;;;;;;3.10;2.20;;;;;;;17.00;39.34;95338.34;5116499;28;20180;-66
2022/05/10 08:23:21;;;;;;;3.13;2.50;;;;;;;17.01;37.90;95342.72;5115553;28;20619;-65
2022/05/10 08:25:50;;;;;;;4.32;2.47;;;;;;;17.07;38.43;95334.81;5115245;28;20238;-65
2022/05/10 08:28:17;;;;;;;2.63;2.00;;;;;;;17.14;37.07;95334.88;5116391;28;20191;-65
2022/05/10 08:30:46;;;;;;;3.95;2.58;;;;;;;17.20;37.40;95338.06;5115815;28;20204;-65
2022/05/10 08:33:19;;;;;;;3.65;2.58;;;;;;;17.31;36.47;95334.16;5114887;28;20537;-65
2022/05/10 08:35:45;;;;;;;2.50;2.30;;;;;;;17.46;39.18;95337.81;5116123;28;20513;-65
2022/05/10 08:38:12;;;;;;;3.40;2.78;;;;;;;17.58;38.04;95341.47;5116602;28;20199;-65
2022/05/10 08:40:42;;;;;;;3.47;2.47;;;;;;;17.72;39.22;95336.75;5115547;28;20238;-65
2022/05/10 08:43:14;;;;;;;2.92;2.30;;;;;;;17.83;37.30;95330.41;5115377;28;20206;-65
2022/05/10 08:45:43;;;;;;;3.63;2.40;;;;;;;17.95;37.35;95333.66;5115062;28;20192;-65
2022/05/10 08:48:09;;;;;;;2.70;2.42;;;;;;;18.08;37.41;95338.88;5115876;28;20195;-65
2022/05/10 08:50:37;;;;;;;5.22;2.88;;;;;;;18.17;37.51;95334.50;5115730;28;20275;-65
2022/05/10 08:53:06;;;;;;;5.03;3.20;;;;;;;18.18;36.58;95335.31;5116058;28;20199;-65
2022/05/10 08:55:36;;;;;;;4.30;2.67;;;;;;;18.24;36.63;95333.72;5116035;28;20195;-65
2022/05/10 08:58:15;;;;;;;3.13;2.35;;;;;;;18.34;37.17;95326.56;5116008;28;20164;-65
2022/05/10 09:00:46;;;;;;;3.60;2.80;;;;;;;18.52;39.02;95316.22;5115202;28;20269;-66
2022/05/10 09:03:28;;;;;;;3.33;2.60;;;;;;;18.62;36.48;95315.41;5115626;28;20176;-65
2022/05/10 09:05:57;;;;;;;3.95;2.60;;;;;;;18.84;41.11;95324.59;5115475;28;20563;-65
2022/05/10 09:08:31;;;;;;;2.58;2.38;;;;;;;19.00;36.99;95318.63;5115960;28;20508;-65
2022/05/10 09:11:01;;;;;;;2.60;2.40;;;;;;;19.04;38.39;95319.41;5114532;28;20234;-65
2022/05/10 09:13:29;;;;;;;4.93;2.60;;;;;;;19.22;36.59;95314.56;5115555;28;20514;-65
2022/05/10 09:16:01;;;;;;;4.72;3.83;;;;;;;19.28;36.61;95314.97;5115862;28;20202;-65
2022/05/10 09:18:29;;;;;;;3.67;3.20;;;;;;;19.50;38.88;95310.13;5115192;28;20199;-65
2022/05/10 09:21:06;;;;;;;5.13;2.65;;;;;;;19.53;35.70;95306.50;5115756;28;20194;-65
2022/05/10 09:23:37;;;;;;;3.95;2.75;;;;;;;19.56;37.44;95308.47;5115615;28;20187;-65
2022/05/10 09:26:04;;;;;;;2.90;2.70;;;;;;;19.68;36.08;95296.06;5115618;28;20580;-65
2022/05/10 09:28:37;;;;;;;3.22;2.63;;;;;;;19.71;36.19;95301.66;5114474;28;20219;-65
2022/05/10 09:36:55;;;;;;;3.22;2.90;;;;;;;20.17;36.63;95292.22;5115487;28;20203;-65
2022/05/10 09:39:30;;;;;;;4.82;3.10;;;;;;;20.34;37.03;95289.72;5118514;28;20235;-65
2022/05/10 09:41:57;;;;;;;3.03;2.55;;;;;;;20.35;35.38;95294.09;5118824;28;20664;-65
2022/05/10 09:44:28;;;;;;;3.35;2.70;;;;;;;20.44;36.30;95294.41;5118799;28;20203;-65
2022/05/10 09:47:13;;;;;;;3.55;3.00;;;;;;;20.52;35.92;95289.63;5119519;28;20180;-65
2022/05/10 09:49:40;;;;;;;3.63;2.60;;;;;;;20.53;35.97;95286.38;5118612;28;20195;-65
2022/05/10 09:52:17;;;;;;;3.00;2.70;;;;;;;20.58;34.73;95285.94;5118692;28;20275;-65
2022/05/10 09:54:45;;;;;;;3.17;2.80;;;;;;;20.64;36.08;95284.28;5118783;28;20240;-65
2022/05/10 09:57:25;;;;;;;3.03;2.63;;;;;;;20.88;38.81;95278.91;5119230;28;20180;-65
2022/05/10 09:59:54;;;;;;;2.92;2.63;;;;;;;20.92;33.30;95274.84;5119302;28;20183;-65
2022/05/10 10:02:29;;;;;;;3.08;2.20;;;;;;;20.92;33.84;95271.25;5119213;28;20618;-65
2022/05/10 10:04:56;;;;;;;3.72;2.75;;;;;;;20.96;34.07;95266.41;5119409;28;20184;-64
2022/05/10 10:07:25;;;;;;;3.17;2.88;;;;;;;21.03;34.32;95263.53;5119319;28;20230;-65
2022/05/10 10:09:55;;;;;;;3.45;2.72;;;;;;;21.13;33.63;95259.00;5118361;28;20204;-65
2022/05/10 10:12:38;;;;;;;2.60;2.40;;;;;;;21.14;32.24;95252.19;5119254;28;20290;-65
2022/05/10 10:15:22;;;;;;;2.85;2.65;;;;;;;21.19;33.51;95251.72;5117449;28;20219;-65
2022/05/10 10:17:52;;;;;;;3.15;2.85;;;;;;;21.35;33.65;95256.78;5118852;28;20183;-65
2022/05/10 10:20:26;;;;;;;3.78;2.50;;;;;;;21.37;34.03;95241.13;5118978;28;20183;-65
2022/05/10 10:22:55;;;;;;;2.70;2.50;;;;;;;21.44;32.92;95245.88;5118154;28;20199;-65
2022/05/10 10:25:27;;;;;;;2.80;2.60;;;;;;;21.54;34.60;95244.16;5118858;28;20180;-65
2022/05/10 10:27:59;;;;;;;5.03;2.55;;;;;;;21.54;33.31;95247.75;5118827;28;20187;-65
2022/05/10 10:30:30;;;;;;;3.47;2.50;;;;;;;21.59;33.24;95240.88;5118769;28;20184;-65
2022/05/10 10:33:01;;;;;;;2.95;2.75;;;;;;;21.64;33.78;95234.78;5117607;28;20219;-65
2022/05/10 10:35:33;;;;;;;3.55;2.60;;;;;;;21.56;31.87;95236.09;5118097;28;20204;-65
2022/05/10 10:38:06;;;;;;;4.13;2.50;;;;;;;21.65;33.82;95229.97;5117799;28;20206;-65
2022/05/10 10:40:36;;;;;;;4.95;2.75;;;;;;;21.79;33.04;95230.59;5117340;28;20308;-65
2022/05/10 10:43:09;;;;;;;3.03;2.35;;;;;;;21.93;35.08;95231.59;5117747;28;20318;-65
2022/05/10 10:45:40;;;;;;;3.30;2.78;;;;;;;22.07;34.75;95223.75;5118483;28;20249;-65
2022/05/10 10:48:18;;;;;;;3.10;2.88;;;;;;;21.97;32.24;95221.09;5118585;28;20269;-65
2022/05/10 10:50:45;;;;;;;4.40;2.80;;;;;;;21.81;32.38;95221.72;5118151;28;20176;-65
2022/05/10 10:53:13;;;;;;;3.15;2.67;;;;;;;21.91;32.28;95223.59;5117785;28;20250;-65
2022/05/10 10:55:53;;;;;;;3.50;2.55;;;;;;;22.07;31.56;95206.91;5117190;28;20208;-65
2022/05/10 10:58:28;;;;;;;3.17;2.75;;;;;;;22.11;31.36;95209.66;5118355;28;20244;-65
2022/05/10 11:01:00;;;;;;;2.67;2.47;;;;;;;21.91;31.42;95209.56;5117967;28;20610;-65
2022/05/10 11:03:31;;;;;;;3.38;2.92;;;;;;;21.84;32.65;95202.03;5118014;28;20191;-65
2022/05/10 11:06:19;;;;;;;3.70;2.53;;;;;;;22.05;32.81;95208.56;5117435;28;20191;-65
2022/05/10 11:09:10;;;;;;;3.58;2.75;;;;;;;22.08;33.38;95204.91;5117176;28;20209;-65
2022/05/10 11:11:44;;;;;;;3.00;2.70;;;;;;;;;;5117116;28;20623;-65
2022/05/10 11:14:29;;;;;;;3.00;2.75;;;;;;;22.27;31.42;95195.78;5118092;28;20184;-65
2022/05/10 11:17:05;;;;;;;3.20;2.40;;;;;;;22.39;30.12;95191.59;5118208;28;20215;-65
2022/05/10 11:19:56;;;;;;;2.60;2.40;;;;;;;22.57;31.61;95185.66;5117103;28;20641;-65
2022/05/10 11:22:31;;;;;;;4.60;3.00;;;;;;;22.63;31.91;95183.97;5117345;28;20203;-65
2022/05/10 11:25:07;;;;;;;2.63;2.33;;;;;;;22.59;29.93;95178.41;5117890;28;20192;-65
2022/05/10 11:27:44;;;;;;;3.00;2.80;;;;;;;22.63;30.78;95181.16;5117405;28;20683;-65
2022/05/10 11:30:15;;;;;;;3.17;2.80;;;;;;;22.67;31.92;95178.28;5116961;28;20195;-65
2022/05/10 11:32:55;;;;;;;2.78;2.38;;;;;;;22.74;29.73;95164.09;5117433;28;20631;-65
2022/05/10 11:35:54;;;;;;;3.00;2.80;;;;;;;22.85;29.91;95158.28;5116946;28;20198;-65
2022/05/10 11:38:32;;;;;;;2.95;2.67;;;;;;;22.97;30.74;95150.00;5114190;28;20260;-65
2022/05/10 11:41:14;;;;;;;2.88;2.53;;;;;;;22.98;29.00;95165.66;5117336;28;20226;-65
2022/05/10 11:44:31;;;;;;;3.40;2.60;;;;;;;22.51;28.67;95148.84;5117441;28;20184;-65
2022/05/10 11:47:30;;;;;;;7.97;7.22;;;;;;;21.99;29.62;95154.88;5026962;28;20634;-65
2022/05/10 11:50:13;;;;;;;9.25;8.45;;;;;;;21.92;30.79;95154.19;5083119;28;20211;-65
2022/05/10 11:53:20;;;;;;;3.80;3.50;;;;;;;22.11;29.67;95145.88;5116631;28;20211;-65
2022/05/10 11:55:52;;;;;;;3.47;3.17;;;;;;;22.48;30.32;95138.44;5112083;28;20215;-65
2022/05/10 11:58:19;;;;;;;3.25;2.92;;;;;;;22.63;31.24;95138.97;5117035;28;20266;-65
2022/05/10 12:00:52;;;;;;;3.40;2.65;;;;;;;22.59;29.78;95135.44;5115284;28;20196;-65
2022/05/10 12:03:54;;;;;;;3.45;2.60;;;;;;;22.78;31.19;95137.50;5117224;28;20176;-65